Montbello, Colorado
Current Conditions -  °F | °C
As of 3:16 PM on Sunday 23 Nov 2014 (Local Time) from KBKF Reporting Station
Light Snow Light Snow  
Wind Chill: 23°   Ceiling: 1500
Heat Index: 32°   Visibility: 1.2mi
Dew Point: 23°   Wind: 13mph
Humidity: 69%   Direction: 20°NNE
Pressure: 29.83"   Gusts: NA
Location:  39.7897°N, 104.858°W
Report Text: KBKF 232216Z 02011KT 1 1/4SM -SN BR SCT005 OVC015 00/M05 A2983 RMK AO2A PRESRR
Loading
Personal Weather Stations






























Interactive Weather Map New forecast layout! Learn more

10-Day Weather Forecast

Advertisements
Track Severe Weather on mobile